Time;durP1;ratioP1;P1;durP2;ratioP2;P2;SDS_P1;SDS_P2;PMS_P1;PMS_P2;Temp;Humidity;BMP_temperature;BMP_pressure;BME280_temperature;BME280_humidity;BME280_pressure;Samples;Min_cycle;Max_cycle;Signal;HPM_P1;HPM_P2
2022/06/16 00:01:32;;;;;;;13.23;7.15;;;16.20;99.90;;;;;;5046323;28;20238;-77
2022/06/16 00:04:21;;;;;;;11.05;6.50;;;16.30;99.90;;;;;;5046697;28;20221;-75
2022/06/16 00:07:09;;;;;;;16.80;7.03;;;16.20;99.90;;;;;;5043422;28;20231;-77
2022/06/16 00:09:59;;;;;;;12.40;6.90;;;16.20;99.90;;;;;;5052367;28;20224;-76
2022/06/16 00:12:49;;;;;;;12.18;6.85;;;16.10;99.90;;;;;;5033978;28;20221;-77
2022/06/16 00:15:37;;;;;;;13.05;7.00;;;16.10;99.90;;;;;;5047101;28;20240;-77
2022/06/16 00:18:26;;;;;;;13.43;6.75;;;16.20;99.90;;;;;;5056050;28;20303;-77
2022/06/16 00:21:16;;;;;;;9.88;7.57;;;16.10;99.90;;;;;;5059437;28;20224;-76
2022/06/16 00:24:05;;;;;;;13.50;7.00;;;16.00;99.90;;;;;;5060039;28;20231;-76
2022/06/16 00:26:56;;;;;;;11.20;7.45;;;15.90;99.90;;;;;;5058128;28;20248;-76
2022/06/16 00:29:48;;;;;;;12.52;6.82;;;15.90;99.90;;;;;;5046895;28;20220;-76
2022/06/16 00:32:37;;;;;;;12.10;6.80;;;16.00;99.90;;;;;;5055388;28;20306;-75
2022/06/16 00:35:26;;;;;;;10.73;6.78;;;15.90;99.90;;;;;;5048431;28;20224;-77
2022/06/16 00:38:14;;;;;;;11.52;6.75;;;15.90;99.90;;;;;;5056916;28;20232;-77
2022/06/16 00:41:03;;;;;;;9.75;6.57;;;15.90;99.90;;;;;;5064767;28;20334;-77
2022/06/16 00:43:53;;;;;;;12.48;6.47;;;15.90;99.90;;;;;;5045414;28;20260;-76
2022/06/16 00:46:42;;;;;;;10.00;6.82;;;15.90;99.90;;;;;;5060052;28;20453;-75
2022/06/16 00:49:31;;;;;;;15.80;7.35;;;15.80;99.90;;;;;;5047418;28;20238;-76
2022/06/16 00:52:25;;;;;;;9.45;6.88;;;15.80;99.90;;;;;;5038924;28;20223;-75
2022/06/16 00:55:17;;;;;;;10.75;6.65;;;15.70;99.90;;;;;;5060063;28;20312;-73
2022/06/16 00:58:09;;;;;;;11.02;6.70;;;15.70;99.90;;;;;;5054217;28;20357;-73
2022/06/16 01:00:59;;;;;;;9.82;6.88;;;15.80;99.90;;;;;;5056687;28;20913;-72
2022/06/16 01:06:55;;;;;;;12.43;6.88;;;15.80;99.90;;;;;;5058640;28;20277;-73
2022/06/16 01:09:44;;;;;;;11.32;7.03;;;15.70;99.90;;;;;;5047353;28;20216;-73
2022/06/16 01:16:11;;;;;;;12.63;6.90;;;15.70;99.90;;;;;;5053270;28;20705;-74
2022/06/16 01:19:13;;;;;;;10.57;6.63;;;15.60;99.90;;;;;;5048759;28;20216;-77
2022/06/16 01:22:09;;;;;;;12.48;7.05;;;15.60;99.90;;;;;;5061093;28;20306;-77
2022/06/16 01:25:09;;;;;;;12.93;7.20;;;15.60;99.90;;;;;;5042336;28;20220;-77
2022/06/16 01:28:21;;;;;;;8.65;6.47;;;15.60;99.90;;;;;;5047221;28;20216;-77
2022/06/16 01:31:18;;;;;;;10.10;6.80;;;15.60;99.90;;;;;;5049843;28;20334;-76
2022/06/16 01:34:12;;;;;;;10.40;6.63;;;15.50;99.90;;;;;;5049351;28;20216;-76
2022/06/16 01:37:08;;;;;;;11.45;7.47;;;15.60;99.90;;;;;;5043010;28;20812;-76
2022/06/16 01:40:03;;;;;;;10.82;7.15;;;15.50;99.90;;;;;;5042002;28;20291;-77
2022/06/16 01:43:01;;;;;;;9.25;6.75;;;15.60;99.90;;;;;;5044369;28;20224;-76
2022/06/16 01:45:56;;;;;;;11.73;6.60;;;15.60;99.90;;;;;;5049447;28;20223;-77
2022/06/16 01:48:53;;;;;;;13.00;7.00;;;15.60;99.90;;;;;;5059240;28;20216;-75
2022/06/16 01:51:45;;;;;;;10.68;6.55;;;15.50;99.90;;;;;;5041262;28;20231;-78
2022/06/16 01:54:38;;;;;;;9.27;6.25;;;15.50;99.90;;;;;;5046048;28;20212;-77
2022/06/16 01:57:31;;;;;;;9.10;6.28;;;15.50;99.90;;;;;;5043878;28;20224;-76
2022/06/16 02:00:22;;;;;;;8.55;6.13;;;15.50;99.90;;;;;;5041821;28;20236;-76
2022/06/16 02:03:22;;;;;;;11.23;6.82;;;15.50;99.90;;;;;;5046375;28;20311;-76
2022/06/16 02:06:17;;;;;;;9.60;6.68;;;15.50;99.90;;;;;;5043081;28;20216;-76
2022/06/16 02:09:10;;;;;;;10.63;6.25;;;15.40;99.90;;;;;;5060439;28;20225;-76
2022/06/16 02:12:01;;;;;;;10.02;6.07;;;15.40;99.90;;;;;;5058025;28;20303;-76
2022/06/16 02:14:53;;;;;;;11.82;6.35;;;15.40;99.90;;;;;;5042088;28;20243;-77
2022/06/16 02:18:03;;;;;;;11.70;6.43;;;15.40;99.90;;;;;;5065405;28;20223;-76
2022/06/16 02:21:00;;;;;;;9.80;6.40;;;15.40;99.90;;;;;;5057032;28;20299;-76
2022/06/16 02:23:52;;;;;;;11.05;6.28;;;15.40;99.90;;;;;;5046514;28;20220;-75
2022/06/16 02:26:41;;;;;;;10.00;6.78;;;15.40;99.90;;;;;;5047051;28;20224;-75
2022/06/16 02:29:41;;;;;;;8.95;6.38;;;15.40;99.90;;;;;;5042763;28;20260;-76
2022/06/16 02:32:40;;;;;;;13.02;6.97;;;15.30;99.90;;;;;;5049975;28;20603;-75
2022/06/16 02:35:35;;;;;;;13.40;6.32;;;15.40;99.90;;;;;;5057912;28;20654;-74
2022/06/16 02:38:40;;;;;;;11.82;6.85;;;15.40;99.90;;;;;;5044706;28;20215;-74
2022/06/16 02:41:40;;;;;;;13.50;6.72;;;15.40;99.90;;;;;;5046994;28;20242;-75
2022/06/16 02:44:36;;;;;;;13.10;6.05;;;15.40;99.90;;;;;;5048195;28;20227;-74
2022/06/16 02:50:43;;;;;;;9.70;6.15;;;15.40;99.90;;;;;;5054812;28;20235;-74
2022/06/16 02:53:44;;;;;;;7.85;6.15;;;15.30;99.90;;;;;;5069660;28;20266;-73
2022/06/16 02:56:44;;;;;;;8.77;6.00;;;15.40;99.90;;;;;;5040510;28;20345;-73
2022/06/16 02:59:39;;;;;;;9.25;6.13;;;15.40;99.90;;;;;;5044078;28;20880;-73
2022/06/16 03:02:29;;;;;;;8.98;5.65;;;15.50;99.90;;;;;;5049667;28;20764;-72
2022/06/16 03:05:18;;;;;;;9.77;5.63;;;15.60;99.90;;;;;;5062666;28;20240;-76
2022/06/16 03:08:07;;;;;;;8.25;5.20;;;15.50;99.90;;;;;;5043378;28;20258;-74
2022/06/16 03:11:02;;;;;;;9.32;5.22;;;15.60;99.90;;;;;;5051623;28;20336;-75
2022/06/16 03:13:55;;;;;;;9.90;5.40;;;15.70;99.90;;;;;;5051133;28;20261;-74
2022/06/16 03:16:48;;;;;;;11.10;5.95;;;15.70;99.90;;;;;;5057673;28;20228;-76
2022/06/16 03:19:37;;;;;;;7.03;5.22;;;15.80;99.90;;;;;;5058124;28;20595;-74
2022/06/16 03:22:26;;;;;;;10.30;4.88;;;15.80;99.90;;;;;;5054619;28;20224;-76
2022/06/16 03:25:15;;;;;;;9.40;4.32;;;16.00;99.90;;;;;;5056363;28;20659;-76
2022/06/16 03:28:04;;;;;;;7.88;4.57;;;16.00;99.90;;;;;;5057801;28;20929;-76
2022/06/16 03:30:56;;;;;;;6.95;4.57;;;16.10;99.90;;;;;;5051779;28;20346;-75
2022/06/16 03:33:44;;;;;;;7.45;4.20;;;16.10;99.90;;;;;;5055299;28;20216;-75
2022/06/16 03:36:34;;;;;;;5.50;4.32;;;16.20;99.90;;;;;;5054038;28;20292;-74
2022/06/16 03:39:23;;;;;;;7.97;4.70;;;16.20;99.90;;;;;;5058160;28;20226;-76
2022/06/16 03:42:12;;;;;;;7.05;4.00;;;16.20;99.90;;;;;;5055409;28;20216;-77
2022/06/16 03:45:03;;;;;;;4.97;4.00;;;16.20;99.90;;;;;;5059876;28;20298;-76
2022/06/16 03:47:53;;;;;;;11.00;4.65;;;16.10;99.90;;;;;;5052548;28;20471;-77
2022/06/16 03:50:42;;;;;;;7.80;4.32;;;16.10;99.90;;;;;;5056170;28;20212;-77
2022/06/16 03:53:34;;;;;;;7.35;4.13;;;16.20;99.90;;;;;;5053451;28;20220;-78
2022/06/16 03:56:23;;;;;;;9.43;4.50;;;16.20;99.90;;;;;;5071072;28;20231;-81
2022/06/16 03:59:11;;;;;;;6.13;4.03;;;16.10;99.90;;;;;;5055455;28;20257;-80
2022/06/16 04:02:01;;;;;;;5.18;4.20;;;16.20;99.90;;;;;;5050488;28;20300;-80
2022/06/16 04:04:56;;;;;;;9.00;4.32;;;16.20;99.90;;;;;;5058702;28;20231;-79
2022/06/16 04:07:44;;;;;;;5.90;4.15;;;16.20;99.90;;;;;;5049381;28;20225;-77
2022/06/16 04:10:38;;;;;;;8.98;4.75;;;16.20;99.90;;;;;;5057845;28;20220;-77
2022/06/16 04:13:26;;;;;;;7.43;4.63;;;16.30;99.90;;;;;;5056151;28;20787;-76
2022/06/16 04:16:21;;;;;;;7.43;4.80;;;16.20;99.90;;;;;;5054196;28;20224;-76
2022/06/16 04:19:12;;;;;;;6.35;4.38;;;16.30;99.90;;;;;;5055158;28;20252;-78
2022/06/16 04:22:02;;;;;;;5.25;4.30;;;16.30;99.90;;;;;;5054297;28;20701;-78
2022/06/16 04:25:14;;;;;;;9.98;5.53;;;16.30;99.90;;;;;;5056479;28;20220;-77
2022/06/16 04:28:07;;;;;;;7.60;5.15;;;16.30;99.90;;;;;;5056506;28;20298;-78
2022/06/16 04:31:02;;;;;;;7.57;4.57;;;16.40;99.90;;;;;;5057124;28;20236;-77
2022/06/16 04:33:56;;;;;;;7.53;4.95;;;16.50;99.90;;;;;;5051070;28;20221;-78
2022/06/16 04:36:50;;;;;;;6.80;5.22;;;16.50;99.90;;;;;;5055142;28;21058;-77
2022/06/16 04:39:41;;;;;;;7.35;5.03;;;16.50;99.90;;;;;;5052985;28;20710;-77
2022/06/16 04:42:29;;;;;;;9.27;5.32;;;16.50;99.90;;;;;;5053926;28;20293;-78
2022/06/16 04:45:22;;;;;;;8.00;4.68;;;16.70;99.90;;;;;;5058392;28;20322;-78
2022/06/16 04:48:11;;;;;;;5.65;4.22;;;16.80;99.90;;;;;;5055473;28;20731;-78
2022/06/16 04:51:04;;;;;;;7.32;4.63;;;16.90;99.90;;;;;;5055791;28;20833;-78
2022/06/16 04:53:56;;;;;;;6.07;4.30;;;17.00;99.90;;;;;;5058904;28;20240;-78
2022/06/16 04:57:07;;;;;;;5.95;4.43;;;17.20;99.90;;;;;;5056692;28;20253;-76
2022/06/16 05:00:19;;;;;;;10.45;4.40;;;17.40;99.90;;;;;;5052656;28;20248;-74
2022/06/16 05:03:29;;;;;;;6.95;4.30;;;17.40;99.90;;;;;;5053019;28;20239;-76
2022/06/16 05:06:29;;;;;;;6.22;4.10;;;17.50;99.90;;;;;;5053860;28;20215;-75
2022/06/16 05:09:34;;;;;;;6.22;4.40;;;17.70;99.90;;;;;;5055635;28;20331;-76
2022/06/16 05:12:45;;;;;;;11.00;4.28;;;17.80;99.90;;;;;;5056868;28;20236;-75
2022/06/16 05:15:54;;;;;;;5.65;4.03;;;17.90;99.90;;;;;;5046003;28;20229;-74
2022/06/16 05:18:50;;;;;;;9.60;4.65;;;18.10;99.90;;;;;;5030587;28;20758;-75
2022/06/16 05:21:58;;;;;;;7.10;3.90;;;18.30;99.90;;;;;;5043788;28;20244;-75
2022/06/16 05:25:16;;;;;;;6.43;3.67;;;18.20;99.90;;;;;;4999580;28;20588;-78
2022/06/16 05:28:23;;;;;;;4.32;3.45;;;18.40;99.90;;;;;;5057013;28;20224;-73
2022/06/16 05:31:32;;;;;;;5.70;3.85;;;18.70;99.90;;;;;;5040694;28;20232;-75
2022/06/16 05:34:47;;;;;;;4.70;3.50;;;18.70;99.90;;;;;;5031680;28;20305;-74
2022/06/16 05:37:53;;;;;;;6.82;3.30;;;18.80;99.90;;;;;;5044141;28;20217;-75
2022/06/16 05:40:57;;;;;;;7.20;3.53;;;18.90;99.90;;;;;;5057056;28;20224;-74
2022/06/16 05:44:13;;;;;;;4.82;3.08;;;19.00;99.90;;;;;;5034572;28;20227;-75
2022/06/16 05:47:12;;;;;;;5.22;3.30;;;19.20;99.90;;;;;;5055007;28;20236;-77
2022/06/16 05:50:06;;;;;;;5.97;3.63;;;19.30;99.90;;;;;;5039724;28;20228;-75
2022/06/16 05:52:55;;;;;;;3.63;3.22;;;19.30;99.90;;;;;;5051800;28;20653;-74
2022/06/16 05:55:49;;;;;;;7.28;3.00;;;19.40;99.90;;;;;;5045721;28;20231;-74
2022/06/16 05:58:39;;;;;;;4.72;3.15;;;19.50;99.90;;;;;;5054289;28;20796;-77
2022/06/16 06:01:29;;;;;;;4.15;2.97;;;19.80;99.90;;;;;;5046640;28;20220;-78
2022/06/16 06:04:32;;;;;;;7.82;3.15;;;19.80;99.90;;;;;;5054612;28;20641;-76
2022/06/16 06:07:25;;;;;;;3.50;3.13;;;19.70;99.90;;;;;;5044555;28;20311;-74
2022/06/16 06:16:37;;;;;;;7.53;2.90;;;20.50;99.90;;;;;;5044037;28;20220;-77
2022/06/16 06:19:25;;;;;;;4.22;2.90;;;20.40;99.90;;;;;;5059725;28;20220;-78
2022/06/16 06:22:19;;;;;;;4.32;2.70;;;20.60;99.90;;;;;;5043349;28;20231;-77
2022/06/16 06:25:13;;;;;;;4.38;2.80;;;20.90;99.90;;;;;;5045768;28;20690;-74
2022/06/16 06:28:02;;;;;;;3.10;2.50;;;20.90;99.90;;;;;;5048540;28;20345;-80
2022/06/16 06:30:52;;;;;;;3.35;2.45;;;20.70;99.90;;;;;;5048096;28;20220;-80
2022/06/16 06:33:42;;;;;;;4.57;2.92;;;20.60;99.90;;;;;;5037426;28;20228;-76
2022/06/16 06:36:33;;;;;;;4.45;2.50;;;20.50;99.90;;;;;;5055533;28;20231;-78
2022/06/16 06:39:22;;;;;;;5.20;2.50;;;20.70;99.90;;;;;;5044788;28;20227;-77
2022/06/16 06:42:11;;;;;;;3.00;2.40;;;20.90;99.90;;;;;;5058661;28;20224;-77
2022/06/16 06:45:03;;;;;;;3.47;2.40;;;21.00;99.90;;;;;;5044778;28;20281;-77
2022/06/16 06:47:53;;;;;;;3.78;2.10;;;21.10;99.90;;;;;;5043751;28;20225;-76
2022/06/16 06:50:44;;;;;;;6.72;2.30;;;21.30;99.90;;;;;;5042159;28;20318;-80
2022/06/16 06:53:33;;;;;;;4.95;2.40;;;21.50;97.80;;;;;;5056894;28;20224;-77
2022/06/16 06:56:22;;;;;;;4.65;2.90;;;21.40;99.20;;;;;;5052484;28;20224;-78
2022/06/16 06:59:15;;;;;;;3.30;2.33;;;21.40;99.90;;;;;;5043977;28;20254;-77
2022/06/16 07:02:04;;;;;;;6.72;2.47;;;21.30;98.60;;;;;;5058374;28;20225;-75
2022/06/16 07:04:53;;;;;;;4.57;2.50;;;21.50;97.50;;;;;;5054956;28;20212;-75
2022/06/16 07:07:45;;;;;;;3.60;2.13;;;21.40;98.40;;;;;;5041768;28;20278;-76
2022/06/16 07:10:34;;;;;;;2.80;1.90;;;21.50;96.40;;;;;;5047976;28;20220;-76
2022/06/16 07:13:23;;;;;;;4.65;2.65;;;21.70;95.00;;;;;;5060690;28;20228;-78
2022/06/16 07:16:12;;;;;;;3.65;2.53;;;22.50;93.20;;;;;;5049878;28;20239;-77
2022/06/16 07:19:01;;;;;;;6.10;2.50;;;22.20;91.90;;;;;;5049761;28;20235;-78
2022/06/16 07:21:50;;;;;;;5.65;2.58;;;22.40;91.70;;;;;;5056538;28;20224;-76
2022/06/16 07:24:40;;;;;;;2.95;2.20;;;22.70;91.50;;;;;;5041303;28;20228;-77
2022/06/16 07:27:30;;;;;;;7.15;2.40;;;22.60;88.00;;;;;;5061170;28;20334;-77
2022/06/16 07:30:20;;;;;;;4.90;2.00;;;22.50;90.50;;;;;;5056426;28;20307;-76
2022/06/16 07:33:12;;;;;;;6.13;2.10;;;22.60;86.40;;;;;;5053847;28;20245;-77
2022/06/16 07:36:01;;;;;;;4.57;2.28;;;22.70;87.60;;;;;;5054711;28;20291;-77
2022/06/16 07:38:49;;;;;;;3.45;1.90;;;23.00;85.20;;;;;;5057984;28;20226;-76
2022/06/16 07:41:40;;;;;;;2.47;1.92;;;23.10;83.70;;;;;;5059201;28;20607;-80
2022/06/16 07:44:28;;;;;;;4.95;2.20;;;23.40;82.20;;;;;;5057041;28;20221;-76
2022/06/16 07:47:17;;;;;;;4.43;1.75;;;23.60;82.10;;;;;;5054644;28;20228;-77
2022/06/16 07:50:12;;;;;;;3.15;1.80;;;23.70;79.60;;;;;;5042562;28;20227;-76
2022/06/16 07:53:00;;;;;;;6.25;2.13;;;23.90;80.00;;;;;;5044485;28;20252;-75
2022/06/16 07:55:49;;;;;;;3.17;1.73;;;24.10;78.40;;;;;;5041666;28;20217;-74
2022/06/16 07:58:43;;;;;;;2.95;2.17;;;24.30;77.00;;;;;;5057507;28;20224;-76
2022/06/16 08:01:32;;;;;;;3.85;2.00;;;24.40;75.90;;;;;;5038917;28;20234;-77
2022/06/16 08:04:21;;;;;;;6.63;2.60;;;24.20;75.10;;;;;;5058226;28;20220;-73
2022/06/16 08:07:10;;;;;;;5.60;2.35;;;24.20;76.60;;;;;;5053137;28;20343;-76
2022/06/16 08:10:01;;;;;;;2.65;1.95;;;24.80;76.00;;;;;;5039020;28;20236;-74
2022/06/16 08:12:50;;;;;;;3.85;2.00;;;25.70;74.50;;;;;;5050575;28;20216;-77
2022/06/16 08:15:42;;;;;;;4.63;2.10;;;26.30;70.40;;;;;;5051506;28;20224;-77
2022/06/16 11:02:58;;;;;;;2.15;1.50;;;30.80;47.70;;;;;;5059499;27;20623;-82
2022/06/16 11:05:57;;;;;;;4.90;2.00;;;31.20;48.40;;;;;;5029493;28;20219;-81
2022/06/16 11:08:49;;;;;;;2.00;1.65;;;32.30;47.60;;;;;;5040261;28;21001;-83
2022/06/16 11:11:45;;;;;;;2.47;1.77;;;33.40;44.90;;;;;;5055523;28;20231;-81
2022/06/16 11:14:33;;;;;;;3.55;1.88;;;35.70;42.50;;;;;;4999274;28;20226;-78
2022/06/16 11:17:25;;;;;;;1.75;1.60;;;37.90;40.80;;;;;;4995806;28;20268;-78
2022/06/16 11:20:30;;;;;;;2.35;1.63;;;38.80;36.50;;;;;;4995912;28;20226;-78
2022/06/16 11:23:25;;;;;;;2.67;1.48;;;38.60;37.10;;;;;;4998160;28;20229;-79
2022/06/16 11:26:24;;;;;;;3.38;1.83;;;39.70;36.70;;;;;;4994605;28;20228;-78
2022/06/16 11:29:24;;;;;;;3.40;1.73;;;40.30;36.50;;;;;;4998571;28;20311;-79
2022/06/16 11:32:19;;;;;;;3.85;1.60;;;40.40;36.90;;;;;;4997337;28;20229;-79
2022/06/16 11:35:10;;;;;;;3.08;1.63;;;38.70;36.10;;;;;;4982090;28;20221;-79
2022/06/16 11:38:12;;;;;;;2.95;1.50;;;38.40;36.00;;;;;;4997168;28;20226;-79
2022/06/16 11:41:07;;;;;;;2.25;1.55;;;37.60;39.60;;;;;;4993010;28;20228;-79
2022/06/16 11:44:09;;;;;;;5.22;1.65;;;35.70;38.40;;;;;;4999438;28;20664;-78
2022/06/16 11:47:04;;;;;;;4.38;1.73;;;34.50;41.40;;;;;;4996543;28;20236;-78
2022/06/16 11:50:00;;;;;;;3.97;1.83;;;34.20;42.50;;;;;;4982672;28;20233;-78
2022/06/16 11:53:00;;;;;;;4.13;1.60;;;33.30;43.30;;;;;;4998393;28;20278;-77
2022/06/16 11:55:57;;;;;;;6.03;1.60;;;32.90;43.50;;;;;;4997946;28;20230;-78
2022/06/16 11:59:03;;;;;;;3.42;1.90;;;33.50;43.00;;;;;;4998215;28;20233;-78
2022/06/16 12:01:58;;;;;;;3.03;1.90;;;35.50;42.10;;;;;;4997262;28;20860;-78
2022/06/16 12:05:03;;;;;;;2.90;1.70;;;36.60;39.40;;;;;;4996847;28;20391;-78
2022/06/16 12:08:28;;;;;;;2.42;1.60;;;37.70;38.30;;;;;;4993303;28;20240;-80
2022/06/16 12:11:28;;;;;;;3.75;1.95;;;37.30;38.00;;;;;;4976983;28;20237;-79
2022/06/16 12:14:47;;;;;;;4.00;1.80;;;37.20;38.10;;;;;;4981148;28;20625;-78
2022/06/16 12:17:43;;;;;;;8.00;1.92;;;37.60;39.40;;;;;;4985999;28;20218;-79
2022/06/16 12:20:39;;;;;;;3.17;1.80;;;37.10;38.50;;;;;;4958072;28;20226;-78
2022/06/16 12:23:37;;;;;;;4.97;2.25;;;37.70;38.30;;;;;;4982968;28;20222;-78
2022/06/16 12:26:31;;;;;;;2.47;1.90;;;36.70;39.50;;;;;;4977020;28;20223;-81
2022/06/16 12:29:32;;;;;;;13.32;1.95;;;35.10;39.70;;;;;;4982273;28;20270;-78
2022/06/16 12:32:39;;;;;;;3.50;1.83;;;33.70;40.60;;;;;;4987674;28;20242;-77
2022/06/16 12:35:35;;;;;;;2.92;1.95;;;33.60;41.90;;;;;;4982627;28;20230;-78
2022/06/16 12:38:30;;;;;;;4.40;2.03;;;33.80;41.90;;;;;;4984250;28;20310;-78
2022/06/16 12:41:23;;;;;;;2.65;1.50;;;33.70;43.00;;;;;;4985068;28;20761;-77
2022/06/16 12:44:18;;;;;;;2.63;1.77;;;34.90;42.40;;;;;;4982575;28;20298;-78
2022/06/16 12:47:11;;;;;;;5.72;1.90;;;36.00;40.00;;;;;;4985324;28;20269;-79
2022/06/16 12:50:06;;;;;;;3.00;1.77;;;37.10;38.40;;;;;;4986243;28;20308;-75
2022/06/16 12:53:01;;;;;;;4.82;1.88;;;36.70;37.80;;;;;;4981340;28;20328;-75
2022/06/16 12:55:54;;;;;;;3.95;1.90;;;34.80;38.90;;;;;;4981288;28;21017;-77
2022/06/16 12:58:50;;;;;;;3.75;2.03;;;32.60;41.70;;;;;;4970888;28;20509;-75
2022/06/16 13:01:40;;;;;;;7.07;2.00;;;31.50;44.90;;;;;;4980853;28;20719;-77
2022/06/16 13:04:32;;;;;;;4.05;1.90;;;30.80;47.20;;;;;;4968831;28;20636;-77
2022/06/16 13:07:26;;;;;;;4.18;1.95;;;30.40;47.80;;;;;;4968877;28;20260;-78
2022/06/16 13:10:19;;;;;;;4.35;2.22;;;30.10;48.90;;;;;;4979129;28;20735;-78
2022/06/16 13:13:09;;;;;;;2.47;1.80;;;29.90;49.50;;;;;;4977509;28;20736;-75
2022/06/16 13:16:02;;;;;;;3.10;2.20;;;30.00;49.60;;;;;;4982089;28;20271;-79
2022/06/16 13:18:57;;;;;;;3.38;2.25;;;29.80;49.00;;;;;;4980829;28;20225;-75
2022/06/16 13:21:50;;;;;;;4.88;1.98;;;29.60;50.20;;;;;;4977797;28;20213;-76
2022/06/16 13:24:42;;;;;;;3.50;1.90;;;28.90;50.40;;;;;;4969282;28;20218;-79
2022/06/16 13:27:39;;;;;;;3.42;1.98;;;28.60;50.40;;;;;;4972085;28;20705;-77
2022/06/16 13:30:40;;;;;;;3.42;2.03;;;28.60;51.40;;;;;;4984622;28;20225;-77
2022/06/16 13:33:42;;;;;;;3.85;2.30;;;28.70;52.50;;;;;;4980157;28;20688;-76
2022/06/16 13:36:55;;;;;;;3.22;2.25;;;28.50;52.20;;;;;;4968874;28;20225;-77
2022/06/16 13:39:58;;;;;;;3.60;2.33;;;28.00;52.70;;;;;;4978231;28;20222;-80
2022/06/16 13:43:02;;;;;;;5.93;2.40;;;27.70;53.90;;;;;;4976465;28;20241;-74
2022/06/16 13:45:59;;;;;;;5.03;2.67;;;27.60;53.50;;;;;;4983430;28;20222;-74
2022/06/16 13:48:51;;;;;;;2.75;2.10;;;27.30;54.40;;;;;;4978142;28;20310;-77
2022/06/16 13:51:48;;;;;;;4.50;2.47;;;27.10;54.90;;;;;;4960259;28;20279;-76
2022/06/16 13:54:39;;;;;;;4.07;2.40;;;27.40;54.20;;;;;;4980096;28;20279;-79
2022/06/16 13:57:33;;;;;;;4.35;2.15;;;27.00;54.80;;;;;;4982200;28;20286;-78
2022/06/16 14:00:37;;;;;;;3.95;2.10;;;27.10;54.40;;;;;;4976854;28;20564;-75
2022/06/16 14:03:26;;;;;;;4.35;2.00;;;26.90;56.10;;;;;;4975004;28;20234;-75
2022/06/16 14:06:15;;;;;;;3.83;2.50;;;;;;;;;;4976973;28;20741;-76
2022/06/16 14:09:11;;;;;;;5.20;2.30;;;27.10;55.40;;;;;;4974973;28;20811;-75
2022/06/16 14:12:18;;;;;;;4.57;2.30;;;27.00;56.30;;;;;;4974329;28;20341;-74
2022/06/16 14:15:12;;;;;;;5.40;2.40;;;27.20;56.20;;;;;;4977230;28;20210;-74
2022/06/16 14:18:13;;;;;;;4.93;2.20;;;27.10;56.30;;;;;;4974382;28;20246;-73
2022/06/16 14:21:07;;;;;;;7.10;2.70;;;27.10;56.60;;;;;;4961249;28;20234;-75
2022/06/16 14:24:02;;;;;;;5.32;2.50;;;27.10;56.20;;;;;;4969485;28;20234;-75
2022/06/16 14:26:52;;;;;;;7.38;2.40;;;26.80;55.90;;;;;;4964689;28;20227;-74
2022/06/16 14:29:44;;;;;;;3.88;2.13;;;26.60;56.50;;;;;;4976011;28;20226;-75
2022/06/16 14:32:40;;;;;;;2.70;2.40;;;26.60;57.00;;;;;;4979233;28;20830;-75
2022/06/16 14:35:35;;;;;;;3.45;2.33;;;26.70;57.10;;;;;;4977809;28;20437;-75
2022/06/16 14:38:30;;;;;;;4.30;2.50;;;26.80;56.90;;;;;;4964736;28;20227;-73
2022/06/16 14:41:26;;;;;;;2.30;2.10;;;26.70;56.80;;;;;;4963925;28;20994;-76
2022/06/16 14:44:21;;;;;;;4.68;2.40;;;26.60;56.70;;;;;;4976787;28;20351;-75
2022/06/16 14:47:16;;;;;;;3.38;2.00;;;26.50;57.10;;;;;;4961593;28;20231;-75
2022/06/16 14:50:08;;;;;;;5.15;2.13;;;26.20;57.00;;;;;;4960460;28;20231;-75
2022/06/16 14:53:06;;;;;;;3.97;1.90;;;26.30;57.90;;;;;;4977981;28;20713;-75
2022/06/16 14:56:05;;;;;;;3.45;2.17;;;26.30;57.60;;;;;;4961121;28;20229;-74
2022/06/16 14:58:56;;;;;;;3.40;2.20;;;26.10;57.80;;;;;;4968618;28;20234;-75
2022/06/16 15:01:47;;;;;;;4.63;2.80;;;26.20;57.70;;;;;;4973881;28;20258;-73
2022/06/16 15:04:38;;;;;;;2.90;2.30;;;26.00;57.70;;;;;;4960432;28;20639;-74
2022/06/16 15:07:53;;;;;;;3.72;2.20;;;26.00;57.80;;;;;;4978912;28;20645;-75
2022/06/16 16:18:00;;;;;;;3.70;2.60;;;25.20;58.90;;;;;;5012654;28;20605;-71
2022/06/16 16:20:52;;;;;;;5.13;2.38;;;25.20;59.30;;;;;;4990411;28;20231;-74
2022/06/16 16:23:48;;;;;;;5.38;2.47;;;25.20;59.30;;;;;;4988543;28;20215;-76
2022/06/16 16:26:37;;;;;;;7.22;2.30;;;25.20;58.80;;;;;;4993030;28;20227;-74
2022/06/16 16:29:27;;;;;;;3.25;2.50;;;25.20;59.10;;;;;;4995240;28;20236;-74
2022/06/16 16:32:15;;;;;;;3.80;2.25;;;25.20;59.10;;;;;;4993509;28;20258;-74
2022/06/16 16:35:07;;;;;;;4.75;2.50;;;25.30;59.50;;;;;;4992347;28;20226;-75
2022/06/16 16:37:55;;;;;;;2.75;2.25;;;25.40;59.90;;;;;;5005521;28;20222;-74
2022/06/16 16:43:50;;;;;;;3.53;2.20;;;25.30;59.80;;;;;;5007026;28;20229;-75
2022/06/16 16:46:39;;;;;;;3.95;2.22;;;25.10;59.90;;;;;;4995032;28;20230;-76
2022/06/16 16:49:51;;;;;;;6.88;2.78;;;24.90;59.90;;;;;;4993591;28;20252;-76
2022/06/16 16:52:41;;;;;;;3.90;2.63;;;24.90;60.50;;;;;;4990788;28;20226;-76
2022/06/16 16:55:30;;;;;;;3.47;2.50;;;24.70;60.00;;;;;;4993320;28;20225;-76
2022/06/16 16:58:20;;;;;;;4.45;2.47;;;24.70;61.20;;;;;;4994938;28;20325;-76
2022/06/16 17:01:10;;;;;;;3.25;2.40;;;24.60;60.50;;;;;;4995776;28;20235;-75
2022/06/16 17:04:08;;;;;;;3.10;2.30;;;24.60;60.30;;;;;;5017779;28;20721;-75
2022/06/16 17:06:57;;;;;;;3.88;2.53;;;24.60;60.00;;;;;;4999668;28;20728;-77
2022/06/16 17:09:47;;;;;;;2.55;2.30;;;24.60;60.10;;;;;;4997891;28;20225;-74
2022/06/16 17:12:36;;;;;;;4.47;2.50;;;24.60;60.20;;;;;;5000424;28;20874;-75
2022/06/16 17:15:25;;;;;;;3.08;2.40;;;24.50;60.00;;;;;;4996486;28;20234;-75
2022/06/16 17:18:16;;;;;;;5.63;2.47;;;24.50;60.10;;;;;;4979463;28;20234;-74
2022/06/16 17:21:05;;;;;;;4.63;2.58;;;24.30;60.10;;;;;;4992663;28;20237;-74
2022/06/16 17:24:15;;;;;;;3.50;2.30;;;24.40;60.30;;;;;;4993687;28;20221;-74
2022/06/16 17:27:07;;;;;;;3.95;2.65;;;24.40;60.40;;;;;;4994912;28;20215;-71
2022/06/16 17:29:57;;;;;;;4.55;2.40;;;24.40;60.30;;;;;;4973092;28;20226;-74
2022/06/16 17:32:46;;;;;;;4.50;2.38;;;24.40;61.00;;;;;;4992796;28;20956;-75
2022/06/16 17:35:40;;;;;;;4.78;2.58;;;24.50;60.90;;;;;;4984828;28;20819;-74
2022/06/16 17:38:30;;;;;;;4.38;2.50;;;24.40;61.10;;;;;;4978796;28;20246;-74
2022/06/16 17:41:21;;;;;;;4.32;2.55;;;24.40;60.70;;;;;;4976922;28;20226;-75
2022/06/16 17:44:12;;;;;;;6.28;2.42;;;24.40;61.70;;;;;;4980898;28;20218;-75
2022/06/16 17:47:01;;;;;;;7.65;2.72;;;24.20;60.90;;;;;;4965372;28;21941;-76
2022/06/16 17:49:49;;;;;;;5.95;2.65;;;24.20;61.80;;;;;;4981324;28;20229;-75
2022/06/16 18:01:58;;;;;;;6.50;2.92;;;23.90;64.20;;;;;;4981613;28;20233;-76
2022/06/16 18:04:47;;;;;;;4.55;2.75;;;23.90;64.40;;;;;;4979507;28;20227;-76
2022/06/16 18:07:37;;;;;;;3.83;2.88;;;23.80;65.00;;;;;;4982029;28;20230;-75
2022/06/16 18:10:29;;;;;;;5.22;2.85;;;23.80;65.30;;;;;;4965950;28;20282;-73
2022/06/16 18:13:18;;;;;;;4.22;2.92;;;23.80;65.20;;;;;;4950423;28;20249;-74
2022/06/16 18:16:09;;;;;;;4.55;2.97;;;23.70;65.60;;;;;;4974627;28;20398;-76
2022/06/16 18:18:59;;;;;;;5.45;3.00;;;23.70;65.30;;;;;;4976961;28;20222;-75
2022/06/16 18:21:51;;;;;;;5.40;2.80;;;23.70;66.40;;;;;;4970918;28;20309;-75
2022/06/16 18:24:42;;;;;;;7.20;2.80;;;23.70;66.60;;;;;;4947624;28;20231;-75
2022/06/16 18:27:32;;;;;;;5.45;3.20;;;23.70;66.10;;;;;;4980962;28;20243;-77
2022/06/16 18:30:24;;;;;;;5.03;2.75;;;23.70;69.00;;;;;;4976351;28;20218;-74
2022/06/16 18:33:15;;;;;;;7.25;3.30;;;23.40;72.00;;;;;;4974703;28;20388;-74
2022/06/16 18:36:05;;;;;;;3.60;2.72;;;23.30;72.50;;;;;;4976717;28;20227;-75
2022/06/16 18:38:54;;;;;;;8.40;3.50;;;23.20;74.40;;;;;;4976006;28;20230;-75
2022/06/16 18:41:46;;;;;;;30.38;6.15;;;23.10;85.80;;;;;;4984932;28;20227;-76
2022/06/16 18:44:35;;;;;;;9.38;4.13;;;22.20;99.90;;;;;;4961650;28;20242;-74
2022/06/16 18:47:25;;;;;;;10.50;4.32;;;21.40;99.90;;;;;;4973659;28;20230;-73
2022/06/16 18:50:16;;;;;;;7.22;3.45;;;21.10;99.90;;;;;;4978489;28;20244;-74
2022/06/16 18:53:16;;;;;;;5.57;3.83;;;20.80;99.90;;;;;;4987810;28;20243;-74
2022/06/16 18:56:07;;;;;;;5.47;3.80;;;20.80;99.90;;;;;;4950743;28;20247;-75
2022/06/16 18:58:57;;;;;;;4.18;3.53;;;20.90;99.90;;;;;;4957637;28;20229;-75
2022/06/16 19:01:46;;;;;;;5.45;3.70;;;20.80;99.90;;;;;;4962863;28;20850;-72
2022/06/16 19:04:35;;;;;;;4.82;3.50;;;20.80;99.90;;;;;;4971527;28;20733;-75
2022/06/16 19:07:24;;;;;;;5.32;3.85;;;20.80;99.90;;;;;;4987611;28;20225;-78
2022/06/16 19:10:20;;;;;;;10.27;3.88;;;20.70;99.90;;;;;;4975115;28;20342;-73
2022/06/16 19:13:09;;;;;;;6.90;3.75;;;20.70;99.90;;;;;;4972469;28;20285;-74
2022/06/16 19:16:02;;;;;;;4.88;3.95;;;20.80;99.90;;;;;;4979755;28;20585;-76
2022/06/16 19:18:51;;;;;;;7.97;5.25;;;20.70;99.90;;;;;;4989543;28;20230;-74
2022/06/16 19:21:40;;;;;;;8.18;4.38;;;20.60;99.90;;;;;;4979579;28;20262;-75
2022/06/16 19:24:28;;;;;;;7.40;4.13;;;20.60;99.90;;;;;;4999355;28;20670;-76